sensor_id;sensor_type;location;lat;lon;timestamp;pressure;altitude;pressure_sealevel;temperature;humidity
81997;BME280;71500;50.806;8.774;2023-12-04T00:00:46;99896.67;;;0.04;67.86
81997;BME280;71500;50.806;8.774;2023-12-04T00:03:36;99894.41;;;0.05;67.98
81997;BME280;71500;50.806;8.774;2023-12-04T00:06:11;99893.27;;;0.02;68.11
81997;BME280;71500;50.806;8.774;2023-12-04T00:08:42;99883.50;;;-0.01;68.11
81997;BME280;71500;50.806;8.774;2023-12-04T00:11:14;99878.09;;;-0.06;68.10
81997;BME280;71500;50.806;8.774;2023-12-04T00:13:45;99877.75;;;-0.06;68.02
81997;BME280;71500;50.806;8.774;2023-12-04T00:16:17;99879.24;;;-0.08;68.27
81997;BME280;71500;50.806;8.774;2023-12-04T00:18:49;99879.37;;;-0.07;68.28
81997;BME280;71500;50.806;8.774;2023-12-04T00:21:20;99880.71;;;-0.06;68.38
81997;BME280;71500;50.806;8.774;2023-12-04T00:23:52;99883.42;;;-0.04;68.48
81997;BME280;71500;50.806;8.774;2023-12-04T00:26:23;99881.23;;;-0.05;68.60
81997;BME280;71500;50.806;8.774;2023-12-04T00:28:54;99872.73;;;-0.03;68.47
81997;BME280;71500;50.806;8.774;2023-12-04T00:31:26;99867.70;;;0.00;68.36
81997;BME280;71500;50.806;8.774;2023-12-04T00:33:57;99862.45;;;0.05;68.39
81997;BME280;71500;50.806;8.774;2023-12-04T00:36:28;99858.80;;;0.08;68.17
81997;BME280;71500;50.806;8.774;2023-12-04T00:39:01;99848.23;;;0.11;68.12
81997;BME280;71500;50.806;8.774;2023-12-04T00:41:32;99841.83;;;0.13;68.08
81997;BME280;71500;50.806;8.774;2023-12-04T00:44:06;99836.00;;;0.15;68.02
81997;BME280;71500;50.806;8.774;2023-12-04T00:46:38;99835.42;;;0.16;67.91
81997;BME280;71500;50.806;8.774;2023-12-04T00:49:09;99834.77;;;0.15;67.98
81997;BME280;71500;50.806;8.774;2023-12-04T00:51:41;99828.77;;;0.13;68.02
81997;BME280;71500;50.806;8.774;2023-12-04T00:54:12;99829.47;;;0.13;68.00
81997;BME280;71500;50.806;8.774;2023-12-04T00:56:43;99825.40;;;0.14;68.00
81997;BME280;71500;50.806;8.774;2023-12-04T00:59:15;99822.17;;;0.16;67.80
81997;BME280;71500;50.806;8.774;2023-12-04T01:01:46;99819.23;;;0.15;67.79
81997;BME280;71500;50.806;8.774;2023-12-04T01:04:17;99821.86;;;0.14;67.82
81997;BME280;71500;50.806;8.774;2023-12-04T01:06:48;99824.80;;;0.15;67.78
81997;BME280;71500;50.806;8.774;2023-12-04T01:09:20;99828.26;;;0.16;67.58
81997;BME280;71500;50.806;8.774;2023-12-04T01:11:55;99823.09;;;0.14;67.41
81997;BME280;71500;50.806;8.774;2023-12-04T01:14:26;99819.84;;;0.12;67.41
81997;BME280;71500;50.806;8.774;2023-12-04T01:16:57;99818.14;;;0.08;67.72
81997;BME280;71500;50.806;8.774;2023-12-04T01:19:29;99816.90;;;-0.03;67.95
81997;BME280;71500;50.806;8.774;2023-12-04T01:22:00;99816.58;;;-0.12;68.02
81997;BME280;71500;50.806;8.774;2023-12-04T01:24:31;99814.36;;;-0.17;68.08
81997;BME280;71500;50.806;8.774;2023-12-04T01:27:04;99817.09;;;-0.19;68.36
81997;BME280;71500;50.806;8.774;2023-12-04T01:29:35;99814.32;;;-0.19;68.39
81997;BME280;71500;50.806;8.774;2023-12-04T01:32:07;99816.73;;;-0.19;68.11
81997;BME280;71500;50.806;8.774;2023-12-04T01:34:38;99821.26;;;-0.18;68.15
81997;BME280;71500;50.806;8.774;2023-12-04T01:37:10;99824.66;;;-0.16;68.09
81997;BME280;71500;50.806;8.774;2023-12-04T01:39:41;99822.30;;;-0.18;68.06
81997;BME280;71500;50.806;8.774;2023-12-04T01:42:13;99818.27;;;-0.18;68.15
81997;BME280;71500;50.806;8.774;2023-12-04T01:44:44;99811.71;;;-0.19;68.18
81997;BME280;71500;50.806;8.774;2023-12-04T01:47:16;99804.64;;;-0.22;68.35
81997;BME280;71500;50.806;8.774;2023-12-04T01:49:48;99803.36;;;-0.24;68.69
81997;BME280;71500;50.806;8.774;2023-12-04T01:52:20;99798.61;;;-0.27;68.88
81997;BME280;71500;50.806;8.774;2023-12-04T01:54:51;99798.38;;;-0.26;68.93
81997;BME280;71500;50.806;8.774;2023-12-04T01:57:23;99797.41;;;-0.24;68.94
81997;BME280;71500;50.806;8.774;2023-12-04T01:59:54;99796.14;;;-0.19;68.68
81997;BME280;71500;50.806;8.774;2023-12-04T02:02:26;99793.02;;;-0.12;68.44
81997;BME280;71500;50.806;8.774;2023-12-04T02:04:59;99787.83;;;-0.05;68.44
81997;BME280;71500;50.806;8.774;2023-12-04T02:07:30;99782.95;;;0.02;68.47
81997;BME280;71500;50.806;8.774;2023-12-04T02:10:02;99776.83;;;0.11;68.57
81997;BME280;71500;50.806;8.774;2023-12-04T02:12:34;99771.79;;;0.17;68.22
81997;BME280;71500;50.806;8.774;2023-12-04T02:15:07;99769.92;;;0.20;68.31
81997;BME280;71500;50.806;8.774;2023-12-04T02:17:40;99767.34;;;0.19;68.41
81997;BME280;71500;50.806;8.774;2023-12-04T02:20:14;99766.92;;;0.17;68.50
81997;BME280;71500;50.806;8.774;2023-12-04T02:22:45;99770.97;;;0.12;68.50
81997;BME280;71500;50.806;8.774;2023-12-04T02:25:16;99776.66;;;0.10;68.68
81997;BME280;71500;50.806;8.774;2023-12-04T02:28:07;99772.89;;;0.05;68.50
81997;BME280;71500;50.806;8.774;2023-12-04T02:30:43;99767.96;;;0.06;68.38
81997;BME280;71500;50.806;8.774;2023-12-04T02:33:14;99765.59;;;0.08;68.23
81997;BME280;71500;50.806;8.774;2023-12-04T02:35:49;99760.62;;;0.10;68.26
81997;BME280;71500;50.806;8.774;2023-12-04T02:38:22;99762.03;;;0.09;68.33
81997;BME280;71500;50.806;8.774;2023-12-04T02:40:54;99759.39;;;0.06;68.28
81997;BME280;71500;50.806;8.774;2023-12-04T02:43:26;99753.27;;;0.03;68.36
81997;BME280;71500;50.806;8.774;2023-12-04T02:45:57;99755.63;;;-0.03;68.54
81997;BME280;71500;50.806;8.774;2023-12-04T02:48:29;99755.71;;;-0.08;68.68
81997;BME280;71500;50.806;8.774;2023-12-04T02:51:00;99754.77;;;-0.14;68.71
81997;BME280;71500;50.806;8.774;2023-12-04T02:53:32;99750.79;;;-0.19;68.83
81997;BME280;71500;50.806;8.774;2023-12-04T02:56:05;99748.39;;;-0.20;68.83
81997;BME280;71500;50.806;8.774;2023-12-04T02:58:37;99741.70;;;-0.18;68.78
81997;BME280;71500;50.806;8.774;2023-12-04T03:01:08;99734.89;;;-0.19;68.85
81997;BME280;71500;50.806;8.774;2023-12-04T03:03:40;99735.16;;;-0.21;68.90
81997;BME280;71500;50.806;8.774;2023-12-04T03:06:12;99734.26;;;-0.24;69.01
81997;BME280;71500;50.806;8.774;2023-12-04T03:08:46;99727.98;;;-0.28;69.00
81997;BME280;71500;50.806;8.774;2023-12-04T03:11:17;99724.40;;;-0.29;69.04
81997;BME280;71500;50.806;8.774;2023-12-04T03:13:48;99724.70;;;-0.32;69.02
81997;BME280;71500;50.806;8.774;2023-12-04T03:16:20;99720.39;;;-0.29;68.78
81997;BME280;71500;50.806;8.774;2023-12-04T03:18:51;99719.98;;;-0.28;68.51
81997;BME280;71500;50.806;8.774;2023-12-04T03:21:22;99721.05;;;-0.25;68.36
81997;BME280;71500;50.806;8.774;2023-12-04T03:23:54;99708.95;;;-0.23;68.16
81997;BME280;71500;50.806;8.774;2023-12-04T03:26:26;99711.58;;;-0.24;68.42
81997;BME280;71500;50.806;8.774;2023-12-04T03:28:58;99707.91;;;-0.24;68.32
81997;BME280;71500;50.806;8.774;2023-12-04T03:31:29;99705.48;;;-0.20;68.30
81997;BME280;71500;50.806;8.774;2023-12-04T03:34:01;99706.59;;;-0.18;68.47
81997;BME280;71500;50.806;8.774;2023-12-04T03:36:33;99702.30;;;-0.16;68.47
81997;BME280;71500;50.806;8.774;2023-12-04T03:39:04;99694.39;;;-0.18;68.31
81997;BME280;71500;50.806;8.774;2023-12-04T03:41:35;99687.49;;;-0.20;68.49
81997;BME280;71500;50.806;8.774;2023-12-04T03:44:07;99689.45;;;-0.24;68.42
81997;BME280;71500;50.806;8.774;2023-12-04T03:46:38;99688.91;;;-0.31;68.44
81997;BME280;71500;50.806;8.774;2023-12-04T03:49:09;99681.65;;;-0.37;68.39
81997;BME280;71500;50.806;8.774;2023-12-04T03:51:41;99684.13;;;-0.38;68.42
81997;BME280;71500;50.806;8.774;2023-12-04T03:54:12;99681.70;;;-0.41;68.45
81997;BME280;71500;50.806;8.774;2023-12-04T03:56:44;99678.08;;;-0.42;68.29
81997;BME280;71500;50.806;8.774;2023-12-04T03:59:15;99672.95;;;-0.41;68.17
81997;BME280;71500;50.806;8.774;2023-12-04T04:01:46;99672.41;;;-0.41;68.15
81997;BME280;71500;50.806;8.774;2023-12-04T04:04:18;99670.71;;;-0.41;68.06
81997;BME280;71500;50.806;8.774;2023-12-04T04:06:49;99667.63;;;-0.42;67.96
81997;BME280;71500;50.806;8.774;2023-12-04T04:09:21;99663.16;;;-0.48;68.02
81997;BME280;71500;50.806;8.774;2023-12-04T04:11:52;99663.42;;;-0.50;67.99
81997;BME280;71500;50.806;8.774;2023-12-04T04:14:23;99657.84;;;-0.54;67.98
81997;BME280;71500;50.806;8.774;2023-12-04T04:16:54;99660.39;;;-0.56;67.72
81997;BME280;71500;50.806;8.774;2023-12-04T04:19:26;99656.63;;;-0.57;67.77
81997;BME280;71500;50.806;8.774;2023-12-04T04:21:57;99652.30;;;-0.58;67.75
81997;BME280;71500;50.806;8.774;2023-12-04T04:24:29;99652.30;;;-0.58;67.77
81997;BME280;71500;50.806;8.774;2023-12-04T04:27:01;99645.41;;;-0.60;67.77
81997;BME280;71500;50.806;8.774;2023-12-04T04:29:32;99645.97;;;-0.61;67.52
81997;BME280;71500;50.806;8.774;2023-12-04T04:32:04;99643.17;;;-0.64;67.31
81997;BME280;71500;50.806;8.774;2023-12-04T04:34:36;99635.84;;;-0.68;67.35
81997;BME280;71500;50.806;8.774;2023-12-04T04:37:07;99633.02;;;-0.71;67.28
81997;BME280;71500;50.806;8.774;2023-12-04T04:39:40;99629.50;;;-0.74;67.19
81997;BME280;71500;50.806;8.774;2023-12-04T04:42:11;99626.63;;;-0.76;67.11
81997;BME280;71500;50.806;8.774;2023-12-04T04:44:43;99632.30;;;-0.78;67.15
81997;BME280;71500;50.806;8.774;2023-12-04T04:47:14;99629.77;;;-0.80;67.23
81997;BME280;71500;50.806;8.774;2023-12-04T04:49:45;99627.95;;;-0.82;67.01
81997;BME280;71500;50.806;8.774;2023-12-04T04:52:17;99627.31;;;-0.83;67.22
81997;BME280;71500;50.806;8.774;2023-12-04T04:54:48;99625.95;;;-0.88;67.18
81997;BME280;71500;50.806;8.774;2023-12-04T04:57:19;99630.65;;;-0.92;67.14
81997;BME280;71500;50.806;8.774;2023-12-04T04:59:51;99628.30;;;-0.93;67.17
81997;BME280;71500;50.806;8.774;2023-12-04T05:02:22;99627.77;;;-0.97;67.37
81997;BME280;71500;50.806;8.774;2023-12-04T05:04:53;99633.45;;;-0.99;67.40
81997;BME280;71500;50.806;8.774;2023-12-04T05:07:25;99633.37;;;-0.98;67.43
81997;BME280;71500;50.806;8.774;2023-12-04T05:09:56;99639.77;;;-1.00;67.56
81997;BME280;71500;50.806;8.774;2023-12-04T05:12:27;99632.35;;;-0.98;67.45
81997;BME280;71500;50.806;8.774;2023-12-04T05:14:58;99630.52;;;-0.93;67.51
81997;BME280;71500;50.806;8.774;2023-12-04T05:17:30;99629.83;;;-0.85;67.34
81997;BME280;71500;50.806;8.774;2023-12-04T05:20:02;99628.13;;;-0.78;67.36
81997;BME280;71500;50.806;8.774;2023-12-04T05:22:34;99631.02;;;-0.73;67.15
81997;BME280;71500;50.806;8.774;2023-12-04T05:25:06;99633.09;;;-0.69;67.28
81997;BME280;71500;50.806;8.774;2023-12-04T05:27:38;99630.98;;;-0.64;67.18
81997;BME280;71500;50.806;8.774;2023-12-04T05:30:11;99627.56;;;-0.62;67.32
81997;BME280;71500;50.806;8.774;2023-12-04T05:32:42;99626.27;;;-0.61;67.28
81997;BME280;71500;50.806;8.774;2023-12-04T05:35:14;99628.11;;;-0.59;67.13
81997;BME280;71500;50.806;8.774;2023-12-04T05:37:46;99623.52;;;-0.62;66.93
81997;BME280;71500;50.806;8.774;2023-12-04T05:40:18;99619.45;;;-0.64;66.93
81997;BME280;71500;50.806;8.774;2023-12-04T05:42:49;99615.75;;;-0.63;66.84
81997;BME280;71500;50.806;8.774;2023-12-04T05:45:21;99608.23;;;-0.63;66.86
81997;BME280;71500;50.806;8.774;2023-12-04T05:47:52;99602.35;;;-0.63;66.68
81997;BME280;71500;50.806;8.774;2023-12-04T05:50:23;99595.08;;;-0.65;66.63
81997;BME280;71500;50.806;8.774;2023-12-04T05:52:55;99589.23;;;-0.67;66.55
81997;BME280;71500;50.806;8.774;2023-12-04T05:55:26;99587.59;;;-0.69;66.54
81997;BME280;71500;50.806;8.774;2023-12-04T05:57:58;99585.41;;;-0.71;66.56
81997;BME280;71500;50.806;8.774;2023-12-04T06:00:29;99588.48;;;-0.73;66.57
81997;BME280;71500;50.806;8.774;2023-12-04T06:03:01;99594.19;;;-0.75;66.48
81997;BME280;71500;50.806;8.774;2023-12-04T06:05:32;99594.37;;;-0.79;66.41
81997;BME280;71500;50.806;8.774;2023-12-04T06:08:04;99594.36;;;-0.83;66.40
81997;BME280;71500;50.806;8.774;2023-12-04T06:10:35;99596.28;;;-0.87;66.44
81997;BME280;71500;50.806;8.774;2023-12-04T06:13:07;99585.20;;;-0.92;66.41
81997;BME280;71500;50.806;8.774;2023-12-04T06:15:38;99580.21;;;-0.97;66.47
81997;BME280;71500;50.806;8.774;2023-12-04T06:18:09;99576.23;;;-1.02;66.62
81997;BME280;71500;50.806;8.774;2023-12-04T06:20:41;99567.89;;;-1.06;66.79
81997;BME280;71500;50.806;8.774;2023-12-04T06:23:13;99565.05;;;-1.09;66.95
81997;BME280;71500;50.806;8.774;2023-12-04T06:25:46;99560.21;;;-1.10;66.97
81997;BME280;71500;50.806;8.774;2023-12-04T06:28:19;99557.83;;;-1.12;67.00
81997;BME280;71500;50.806;8.774;2023-12-04T06:30:51;99559.79;;;-1.12;67.03
81997;BME280;71500;50.806;8.774;2023-12-04T06:33:24;99558.48;;;-1.14;66.93
81997;BME280;71500;50.806;8.774;2023-12-04T06:35:57;99556.84;;;-1.16;66.97
81997;BME280;71500;50.806;8.774;2023-12-04T06:38:33;99553.38;;;-1.17;66.96
81997;BME280;71500;50.806;8.774;2023-12-04T06:41:13;99556.10;;;-1.19;67.06
81997;BME280;71500;50.806;8.774;2023-12-04T06:43:46;99553.66;;;-1.23;66.92
81997;BME280;71500;50.806;8.774;2023-12-04T06:46:22;99552.34;;;-1.25;67.02
81997;BME280;71500;50.806;8.774;2023-12-04T06:48:55;99548.77;;;-1.27;67.18
81997;BME280;71500;50.806;8.774;2023-12-04T06:51:28;99542.36;;;-1.27;67.31
81997;BME280;71500;50.806;8.774;2023-12-04T06:53:59;99535.30;;;-1.29;67.49
81997;BME280;71500;50.806;8.774;2023-12-04T06:56:30;99540.16;;;-1.29;67.51
81997;BME280;71500;50.806;8.774;2023-12-04T06:59:02;99536.52;;;-1.29;67.68
81997;BME280;71500;50.806;8.774;2023-12-04T07:01:34;99534.72;;;-1.28;67.68
81997;BME280;71500;50.806;8.774;2023-12-04T07:04:05;99533.59;;;-1.26;67.77
81997;BME280;71500;50.806;8.774;2023-12-04T07:06:40;99532.85;;;-1.25;67.83
81997;BME280;71500;50.806;8.774;2023-12-04T07:09:13;99541.89;;;-1.25;68.04
81997;BME280;71500;50.806;8.774;2023-12-04T07:11:44;99541.61;;;-1.23;67.97
81997;BME280;71500;50.806;8.774;2023-12-04T07:14:15;99539.88;;;-1.15;67.74
81997;BME280;71500;50.806;8.774;2023-12-04T07:16:48;99539.42;;;-1.09;67.96
81997;BME280;71500;50.806;8.774;2023-12-04T07:19:19;99534.47;;;-1.03;67.71
81997;BME280;71500;50.806;8.774;2023-12-04T07:21:51;99534.44;;;-0.98;67.55
81997;BME280;71500;50.806;8.774;2023-12-04T07:24:22;99532.86;;;-0.91;67.69
81997;BME280;71500;50.806;8.774;2023-12-04T07:26:53;99534.88;;;-0.89;67.84
81997;BME280;71500;50.806;8.774;2023-12-04T07:29:25;99533.70;;;-0.87;68.03
81997;BME280;71500;50.806;8.774;2023-12-04T07:31:56;99533.34;;;-0.86;68.10
81997;BME280;71500;50.806;8.774;2023-12-04T07:34:29;99537.35;;;-0.86;68.23
81997;BME280;71500;50.806;8.774;2023-12-04T07:37:00;99533.84;;;-0.86;68.24
81997;BME280;71500;50.806;8.774;2023-12-04T07:39:32;99530.95;;;-0.84;68.45
81997;BME280;71500;50.806;8.774;2023-12-04T07:42:04;99527.59;;;-0.82;68.44
81997;BME280;71500;50.806;8.774;2023-12-04T07:44:42;99526.02;;;-0.83;68.40
81997;BME280;71500;50.806;8.774;2023-12-04T07:47:13;99523.09;;;-0.83;68.43
81997;BME280;71500;50.806;8.774;2023-12-04T07:49:46;99521.88;;;-0.84;68.52
81997;BME280;71500;50.806;8.774;2023-12-04T07:52:18;99527.98;;;-0.84;68.54
81997;BME280;71500;50.806;8.774;2023-12-04T07:54:49;99531.77;;;-0.82;68.59
81997;BME280;71500;50.806;8.774;2023-12-04T07:57:22;99526.92;;;-0.87;68.50
81997;BME280;71500;50.806;8.774;2023-12-04T07:59:53;99526.73;;;-0.90;68.54
81997;BME280;71500;50.806;8.774;2023-12-04T08:02:25;99523.61;;;-0.91;68.75
81997;BME280;71500;50.806;8.774;2023-12-04T08:04:57;99520.59;;;-0.89;68.82
81997;BME280;71500;50.806;8.774;2023-12-04T08:07:28;99517.37;;;-0.88;68.85
81997;BME280;71500;50.806;8.774;2023-12-04T08:09:59;99512.33;;;-0.88;68.61
81997;BME280;71500;50.806;8.774;2023-12-04T08:12:32;99508.30;;;-0.88;68.75
81997;BME280;71500;50.806;8.774;2023-12-04T08:15:07;99504.93;;;-0.86;68.62
81997;BME280;71500;50.806;8.774;2023-12-04T08:17:38;99506.20;;;-0.80;68.42
81997;BME280;71500;50.806;8.774;2023-12-04T08:20:11;99494.66;;;-0.76;68.00
81997;BME280;71500;50.806;8.774;2023-12-04T08:22:51;99487.86;;;-0.69;67.62
81997;BME280;71500;50.806;8.774;2023-12-04T08:25:22;99486.60;;;-0.60;67.31
81997;BME280;71500;50.806;8.774;2023-12-04T08:27:53;99478.77;;;-0.54;66.98
81997;BME280;71500;50.806;8.774;2023-12-04T08:30:25;99468.69;;;-0.47;66.91
81997;BME280;71500;50.806;8.774;2023-12-04T08:32:57;99463.48;;;-0.41;66.94
81997;BME280;71500;50.806;8.774;2023-12-04T08:35:28;99455.23;;;-0.36;66.81
81997;BME280;71500;50.806;8.774;2023-12-04T08:38:00;99445.48;;;-0.33;66.76
81997;BME280;71500;50.806;8.774;2023-12-04T08:40:32;99448.40;;;-0.29;66.60
81997;BME280;71500;50.806;8.774;2023-12-04T08:43:03;99456.45;;;-0.23;66.36
81997;BME280;71500;50.806;8.774;2023-12-04T08:45:35;99456.16;;;-0.21;66.13
81997;BME280;71500;50.806;8.774;2023-12-04T08:48:07;99448.91;;;-0.18;65.56
81997;BME280;71500;50.806;8.774;2023-12-04T08:50:38;99459.02;;;-0.15;65.42
81997;BME280;71500;50.806;8.774;2023-12-04T08:53:09;99454.05;;;-0.10;65.26
81997;BME280;71500;50.806;8.774;2023-12-04T08:55:41;99447.06;;;-0.06;65.19
81997;BME280;71500;50.806;8.774;2023-12-04T08:58:12;99451.34;;;-0.05;65.19
81997;BME280;71500;50.806;8.774;2023-12-04T09:00:44;99449.86;;;-0.03;65.06
81997;BME280;71500;50.806;8.774;2023-12-04T09:03:15;99449.73;;;-0.04;64.86
81997;BME280;71500;50.806;8.774;2023-12-04T09:05:58;99440.48;;;-0.04;65.00
81997;BME280;71500;50.806;8.774;2023-12-04T09:08:30;99443.52;;;-0.02;65.00
81997;BME280;71500;50.806;8.774;2023-12-04T09:11:10;99439.73;;;0.00;64.98
81997;BME280;71500;50.806;8.774;2023-12-04T09:13:53;99438.88;;;0.04;64.87
81997;BME280;71500;50.806;8.774;2023-12-04T09:16:25;99445.06;;;0.09;64.68
81997;BME280;71500;50.806;8.774;2023-12-04T09:18:56;99444.46;;;0.13;64.44
81997;BME280;71500;50.806;8.774;2023-12-04T09:21:28;99438.23;;;0.16;64.36
81997;BME280;71500;50.806;8.774;2023-12-04T09:23:59;99431.45;;;0.19;64.01
81997;BME280;71500;50.806;8.774;2023-12-04T09:26:31;99428.59;;;0.20;63.76
81997;BME280;71500;50.806;8.774;2023-12-04T09:29:02;99422.62;;;0.20;63.82
81997;BME280;71500;50.806;8.774;2023-12-04T09:31:34;99413.34;;;0.22;63.94
81997;BME280;71500;50.806;8.774;2023-12-04T09:34:05;99410.27;;;0.20;63.97
81997;BME280;71500;50.806;8.774;2023-12-04T09:36:38;99404.11;;;0.17;63.70
81997;BME280;71500;50.806;8.774;2023-12-04T09:39:09;99395.45;;;0.13;63.67
81997;BME280;71500;50.806;8.774;2023-12-04T09:41:41;99388.70;;;0.12;64.11
81997;BME280;71500;50.806;8.774;2023-12-04T09:44:13;99384.72;;;0.15;64.23
81997;BME280;71500;50.806;8.774;2023-12-04T09:46:46;99377.42;;;0.17;64.37
81997;BME280;71500;50.806;8.774;2023-12-04T09:49:18;99370.68;;;0.22;64.14
81997;BME280;71500;50.806;8.774;2023-12-04T09:51:51;99377.14;;;0.29;63.61
81997;BME280;71500;50.806;8.774;2023-12-04T09:54:22;99379.64;;;0.34;63.66
81997;BME280;71500;50.806;8.774;2023-12-04T09:56:55;99378.03;;;0.44;63.68
81997;BME280;71500;50.806;8.774;2023-12-04T09:59:27;99369.30;;;0.54;63.54
81997;BME280;71500;50.806;8.774;2023-12-04T10:02:00;99365.07;;;0.61;63.41
81997;BME280;71500;50.806;8.774;2023-12-04T10:04:32;99371.39;;;0.66;63.34
81997;BME280;71500;50.806;8.774;2023-12-04T10:07:04;99370.28;;;0.71;63.26
81997;BME280;71500;50.806;8.774;2023-12-04T10:09:35;99375.30;;;0.78;63.10
81997;BME280;71500;50.806;8.774;2023-12-04T10:12:08;99369.87;;;0.81;62.88
81997;BME280;71500;50.806;8.774;2023-12-04T10:14:40;99365.63;;;0.82;62.92
81997;BME280;71500;50.806;8.774;2023-12-04T10:17:17;99361.55;;;0.83;63.07
81997;BME280;71500;50.806;8.774;2023-12-04T10:19:57;99361.12;;;0.84;62.89
81997;BME280;71500;50.806;8.774;2023-12-04T10:22:53;99345.11;;;0.86;63.12
81997;BME280;71500;50.806;8.774;2023-12-04T10:25:27;99346.53;;;0.92;63.02
81997;BME280;71500;50.806;8.774;2023-12-04T10:28:09;99342.04;;;0.97;62.94
81997;BME280;71500;50.806;8.774;2023-12-04T10:30:41;99335.14;;;0.99;62.81
81997;BME280;71500;50.806;8.774;2023-12-04T10:33:13;99331.77;;;0.99;62.80
81997;BME280;71500;50.806;8.774;2023-12-04T10:35:45;99325.45;;;0.97;62.74
81997;BME280;71500;50.806;8.774;2023-12-04T10:38:17;99314.02;;;0.92;62.33
81997;BME280;71500;50.806;8.774;2023-12-04T10:40:49;99308.09;;;0.77;62.00
81997;BME280;71500;50.806;8.774;2023-12-04T10:43:21;99307.74;;;0.64;62.45
81997;BME280;71500;50.806;8.774;2023-12-04T10:45:53;99313.73;;;0.60;62.46
81997;BME280;71500;50.806;8.774;2023-12-04T10:48:25;99320.06;;;0.63;62.56
81997;BME280;71500;50.806;8.774;2023-12-04T10:50:56;99308.46;;;0.64;62.83
81997;BME280;71500;50.806;8.774;2023-12-04T10:53:29;99309.11;;;0.68;62.98
81997;BME280;71500;50.806;8.774;2023-12-04T10:56:02;99307.23;;;0.70;63.10
81997;BME280;71500;50.806;8.774;2023-12-04T10:58:35;99305.36;;;0.72;62.92
81997;BME280;71500;50.806;8.774;2023-12-04T11:01:08;99303.14;;;0.75;62.04
81997;BME280;71500;50.806;8.774;2023-12-04T11:03:40;99299.58;;;0.76;62.04
81997;BME280;71500;50.806;8.774;2023-12-04T11:06:17;99293.92;;;0.77;61.98
81997;BME280;71500;50.806;8.774;2023-12-04T11:08:49;99294.44;;;0.77;62.19
81997;BME280;71500;50.806;8.774;2023-12-04T11:11:26;99289.61;;;0.82;62.17
81997;BME280;71500;50.806;8.774;2023-12-04T11:14:02;99285.85;;;0.86;62.15
81997;BME280;71500;50.806;8.774;2023-12-04T11:16:41;99277.86;;;0.89;61.98
81997;BME280;71500;50.806;8.774;2023-12-04T11:19:20;99274.70;;;0.86;61.74
81997;BME280;71500;50.806;8.774;2023-12-04T11:21:58;99273.90;;;0.81;61.89
81997;BME280;71500;50.806;8.774;2023-12-04T11:24:30;99269.13;;;0.79;62.09
81997;BME280;71500;50.806;8.774;2023-12-04T11:27:02;99258.35;;;0.87;61.93
81997;BME280;71500;50.806;8.774;2023-12-04T11:29:34;99253.98;;;0.99;62.10
81997;BME280;71500;50.806;8.774;2023-12-04T11:32:08;99254.76;;;1.10;62.02
81997;BME280;71500;50.806;8.774;2023-12-04T11:34:51;99250.33;;;1.20;61.41
81997;BME280;71500;50.806;8.774;2023-12-04T11:37:26;99247.15;;;1.29;61.07
81997;BME280;71500;50.806;8.774;2023-12-04T11:39:57;99240.23;;;1.37;60.68
81997;BME280;71500;50.806;8.774;2023-12-04T11:42:34;99236.92;;;1.42;60.59
81997;BME280;71500;50.806;8.774;2023-12-04T11:45:10;99229.34;;;1.46;60.62
81997;BME280;71500;50.806;8.774;2023-12-04T11:47:54;99224.79;;;1.49;60.20
81997;BME280;71500;50.806;8.774;2023-12-04T11:50:26;99215.17;;;1.49;60.46
81997;BME280;71500;50.806;8.774;2023-12-04T11:52:58;99213.92;;;1.49;60.58
81997;BME280;71500;50.806;8.774;2023-12-04T11:55:31;99209.11;;;1.48;60.68
81997;BME280;71500;50.806;8.774;2023-12-04T11:58:10;99213.25;;;1.43;61.60
81997;BME280;71500;50.806;8.774;2023-12-04T12:00:43;99209.07;;;1.40;61.80
81997;BME280;71500;50.806;8.774;2023-12-04T12:03:15;99202.38;;;1.41;62.39
81997;BME280;71500;50.806;8.774;2023-12-04T12:05:53;99203.32;;;1.42;63.24
81997;BME280;71500;50.806;8.774;2023-12-04T12:08:26;99198.90;;;1.43;63.24
81997;BME280;71500;50.806;8.774;2023-12-04T12:10:59;99187.77;;;1.42;63.35
81997;BME280;71500;50.806;8.774;2023-12-04T12:13:30;99175.80;;;1.41;63.39
81997;BME280;71500;50.806;8.774;2023-12-04T12:16:02;99172.26;;;1.38;63.49
81997;BME280;71500;50.806;8.774;2023-12-04T12:18:36;99163.83;;;1.36;63.18
81997;BME280;71500;50.806;8.774;2023-12-04T12:21:10;99162.48;;;1.30;63.43
81997;BME280;71500;50.806;8.774;2023-12-04T12:23:42;99165.16;;;1.20;63.78
81997;BME280;71500;50.806;8.774;2023-12-04T12:26:13;99162.84;;;1.12;63.83
81997;BME280;71500;50.806;8.774;2023-12-04T12:28:46;99158.98;;;1.13;63.79
81997;BME280;71500;50.806;8.774;2023-12-04T12:31:20;99160.60;;;1.15;63.55
81997;BME280;71500;50.806;8.774;2023-12-04T12:33:52;99152.77;;;1.17;63.33
81997;BME280;71500;50.806;8.774;2023-12-04T12:36:23;99146.05;;;1.18;63.20
81997;BME280;71500;50.806;8.774;2023-12-04T12:38:55;99145.28;;;1.19;63.21
81997;BME280;71500;50.806;8.774;2023-12-04T12:41:27;99138.86;;;1.18;63.21
81997;BME280;71500;50.806;8.774;2023-12-04T12:44:00;99128.81;;;1.17;62.98
81997;BME280;71500;50.806;8.774;2023-12-04T12:46:30;99117.45;;;1.17;63.48
81997;BME280;71500;50.806;8.774;2023-12-04T12:49:01;99112.55;;;1.17;63.30
81997;BME280;71500;50.806;8.774;2023-12-04T12:51:35;99107.36;;;1.16;63.13
81997;BME280;71500;50.806;8.774;2023-12-04T12:54:07;99103.14;;;1.14;63.28
81997;BME280;71500;50.806;8.774;2023-12-04T12:56:38;99099.59;;;1.12;63.25
81997;BME280;71500;50.806;8.774;2023-12-04T12:59:10;99092.91;;;1.09;62.89
81997;BME280;71500;50.806;8.774;2023-12-04T13:01:42;99090.80;;;1.06;62.86
81997;BME280;71500;50.806;8.774;2023-12-04T13:04:16;99089.34;;;1.02;62.74
81997;BME280;71500;50.806;8.774;2023-12-04T13:06:47;99083.31;;;0.98;62.16
81997;BME280;71500;50.806;8.774;2023-12-04T13:09:19;99076.45;;;0.92;62.07
81997;BME280;71500;50.806;8.774;2023-12-04T13:11:52;99075.20;;;0.87;62.24
81997;BME280;71500;50.806;8.774;2023-12-04T13:14:23;99067.06;;;0.81;62.50
81997;BME280;71500;50.806;8.774;2023-12-04T13:16:54;99060.31;;;0.74;62.67
81997;BME280;71500;50.806;8.774;2023-12-04T13:19:26;99054.71;;;0.71;62.92
81997;BME280;71500;50.806;8.774;2023-12-04T13:21:57;99051.45;;;0.70;63.21
81997;BME280;71500;50.806;8.774;2023-12-04T13:24:29;99054.62;;;0.72;63.37
81997;BME280;71500;50.806;8.774;2023-12-04T13:27:00;99054.77;;;0.73;63.96
81997;BME280;71500;50.806;8.774;2023-12-04T13:29:31;99051.91;;;0.71;64.60
81997;BME280;71500;50.806;8.774;2023-12-04T13:32:05;99045.30;;;0.68;65.01